Time;durP1;ratioP1;P1;durP2;ratioP2;P2;SDS_P1;SDS_P2;PMS_P1;PMS_P2;Temp;Humidity;BMP_temperature;BMP_pressure;BME280_temperature;BME280_humidity;BME280_pressure;Samples;Min_cycle;Max_cycle;Signal;HPM_P1;HPM_P2
2023/10/19 00:00:21;;;;;;;;;;;;;;;10.35;100.00;99791.91;255865;38;7575;-79
2023/10/19 00:01:53;;;;;;;;;;;;;;;10.32;100.00;99783.25;2503784;27;19927;-79
2023/10/19 00:02:03;;;;;;;;;;;;;;;10.31;100.00;99791.16;354524;27;1294;-79
2023/10/19 00:02:19;;;;;;;;;;;;;;;10.31;100.00;99784.16;352875;28;1373;-79
2023/10/19 00:02:31;;;;;;;;;;;;;;;10.31;100.00;99783.31;350673;28;2964;-79
2023/10/19 00:02:41;;;;;;;;;;;;;;;10.31;100.00;99786.78;347497;28;5146;-79
2023/10/19 00:02:51;;;;;;;;;;;;;;;10.30;100.00;99785.06;349199;28;914;-79
2023/10/19 00:03:02;;;;;;;;;;;;;;;10.31;100.00;99785.94;349301;28;990;-79
2023/10/19 00:03:12;;;;;;;;;;;;;;;10.29;100.00;99780.75;349098;28;1265;-79
2023/10/19 00:03:23;;;;;;;;;;;;;;;10.28;100.00;99781.66;347740;28;1339;-79
2023/10/19 00:03:33;;;;;;;;;;;;;;;10.30;100.00;99790.31;347890;28;1416;-79
2023/10/19 00:03:49;;;;;;;;;;;;;;;10.29;100.00;99788.59;349339;28;1235;-79
2023/10/19 00:03:59;;;;;;;;;;;;;;;10.30;100.00;99779.84;349273;28;1388;-79
2023/10/19 00:04:10;;;;;;;;;;;;;;;10.29;100.00;99783.38;345096;28;1240;-79
2023/10/19 00:04:21;;;;;;;;;;;;;;;10.29;100.00;99783.38;345099;28;1270;-80
2023/10/19 00:04:34;;;;;;;;;;;;;;;10.29;100.00;99783.38;349027;28;1369;-80
2023/10/19 00:04:44;;;;;;;;;;;;;;;10.30;100.00;99784.22;347729;28;1350;-79
2023/10/19 00:04:54;;;;;;;;;;;;;;;10.32;100.00;99787.63;349038;28;1496;-79
2023/10/19 00:05:09;;;;;;;;;;;;;;;10.31;100.00;99785.94;348904;28;1262;-79
2023/10/19 00:05:20;;;;;;;;;;;;;;;10.31;100.00;99786.78;349217;28;1452;-79
2023/10/19 00:05:32;;;;;;;;;;;;;;;10.32;100.00;99780.63;350664;28;787;-79
2023/10/19 00:05:42;;;;;;;;;;;;;;;10.31;100.00;99786.78;349715;28;1045;-79
2023/10/19 00:05:52;;;;;;;;;;;;;;;10.32;100.00;99785.88;346438;28;1232;-79
2023/10/19 00:06:03;;;;;;;;;;;;;;;10.31;100.00;99780.69;345922;28;1386;-79
2023/10/19 00:06:13;;;;;;;;;;;;;;;10.32;100.00;99787.63;347855;28;1315;-79
2023/10/19 00:06:23;;;;;;;;;;;;;;;10.31;100.00;99778.94;349535;28;768;-79
2023/10/19 00:06:33;;;;;;;;;;;;;;;10.31;100.00;99781.56;350056;28;1141;-79
2023/10/19 00:06:44;;;;;;;;;;;;;;;10.30;100.00;99779.84;353400;28;886;-79
2023/10/19 00:06:55;;;;;;;;;;;;;;;10.32;100.00;99780.63;350246;28;1277;-79
2023/10/19 00:07:07;;;;;;;;;;;;;;;10.31;100.00;99784.16;348925;28;1276;-79
2023/10/19 00:07:17;;;;;;;;;;;;;;;10.32;100.00;99783.25;346124;28;1266;-79
2023/10/19 00:07:28;;;;;;;;;;;;;;;10.31;100.00;99778.94;345220;28;1299;-79
2023/10/19 00:07:38;;;;;;;;;;;;;;;10.32;100.00;99783.25;344913;28;1380;-79
2023/10/19 00:07:49;;;;;;;;;;;;;;;10.31;100.00;99786.78;344030;28;1245;-79
2023/10/19 00:08:02;;;;;;;;;;;;;;;10.32;100.00;99782.41;344879;28;1254;-79
2023/10/19 00:08:20;;;;;;;;;;;;;;;10.30;100.00;99779.00;345824;28;1414;-79
2023/10/19 00:08:41;;;;;;;;;;;;;;;10.28;100.00;99784.28;348182;28;1128;-78
2023/10/19 00:08:52;;;;;;;;;;;;;;;10.31;100.00;99780.69;347842;28;1337;-78
2023/10/19 00:09:03;;;;;;;;;;;;;;;10.30;100.00;99785.06;347324;28;1333;-78
2023/10/19 00:09:15;;;;;;;;;;;;;;;10.29;100.00;99785.97;346407;28;827;-78
2023/10/19 00:09:26;;;;;;;;;;;;;;;10.29;100.00;99774.66;345013;28;1334;-78
2023/10/19 00:09:37;;;;;;;;;;;;;;;10.28;100.00;99779.03;346098;28;867;-78
2023/10/19 00:09:52;;;;;;;;;;;;;;;10.29;100.00;99782.50;343954;28;1366;-79
2023/10/19 00:10:03;;;;;;;;;;;;;;;10.29;100.00;99777.28;343489;28;1213;-79
2023/10/19 00:10:17;;;;;;;;;;;;;;;10.29;100.00;99780.75;343737;28;1251;-79
2023/10/19 00:10:34;;;;;;;;;;;;;;;10.31;100.00;99783.31;340842;28;1681;-79
2023/10/19 00:10:47;;;;;;;;;;;;;;;10.32;100.00;99778.03;342279;28;1503;-79
2023/10/19 00:11:10;;;;;;;;;;;;;;;10.31;100.00;99778.94;342620;28;830;-79
2023/10/19 00:11:25;;;;;;;;;;;;;;;10.33;100.00;99778.88;342768;28;871;-79
2023/10/19 00:11:35;;;;;;;;;;;;;;;10.31;100.00;99778.94;341632;28;1254;-79
2023/10/19 00:11:47;;;;;;;;;;;;;;;10.31;100.00;99773.69;338183;28;2515;-79
2023/10/19 00:11:57;;;;;;;;;;;;;;;10.31;100.00;99776.31;340873;28;3311;-79
2023/10/19 00:12:09;;;;;;;;;;;;;;;10.30;100.00;99777.22;341724;28;892;-80
2023/10/19 00:12:22;;;;;;;;;;;;;;;10.30;100.00;99773.75;339580;29;3306;-80
2023/10/19 00:12:32;;;;;;;;;;;;;;;10.29;100.00;99772.91;340268;28;2069;-80
2023/10/19 00:12:43;;;;;;;;;;;;;;;10.28;100.00;99776.44;338256;29;2010;-80
2023/10/19 00:13:00;;;;;;;;;;;;;;;10.28;100.00;99775.56;340951;29;1369;-80
2023/10/19 00:13:11;;;;;;;;;;;;;;;10.29;100.00;99774.66;338457;29;1253;-79
2023/10/19 00:13:22;;;;;;;;;;;;;;;10.28;100.00;99776.44;338313;29;1267;-79
2023/10/19 00:13:35;;;;;;;;;;;;;;;10.27;100.00;99772.09;337176;29;1101;-79
2023/10/19 00:13:45;;;;;;;;;;;;;;;10.28;100.00;99770.34;334421;29;1543;-79
2023/10/19 00:13:57;;;;;;;;;;;;;;;10.27;100.00;99771.25;333294;29;1213;-79
2023/10/19 00:14:20;;;;;;;;;;;;;;;10.26;100.00;99770.41;331011;29;1128;-79
2023/10/19 00:14:32;;;;;;;;;;;;;;;10.28;100.00;99775.56;326782;29;2458;-79
2023/10/19 00:14:42;;;;;;;;;;;;;;;10.27;100.00;99768.63;322435;30;1419;-79
2023/10/19 00:14:53;;;;;;;;;;;;;;;10.28;100.00;99768.59;315190;31;1230;-79
2023/10/19 00:15:04;;;;;;;;;;;;;;;10.26;100.00;99762.56;320372;30;2659;-79
2023/10/19 00:15:15;;;;;;;;;;;;;;;10.26;100.00;99773.00;323467;30;1803;-79
2023/10/19 00:15:29;;;;;;;;;;;;;;;10.26;100.00;99770.41;325846;30;935;-79
2023/10/19 00:15:40;;;;;;;;;;;;;;;10.25;100.00;99766.06;329552;30;1386;-79
2023/10/19 00:15:54;;;;;;;;;;;;;;;10.25;100.00;99771.31;325283;30;1612;-79
2023/10/19 00:16:16;;;;;;;;;;;;;;;10.25;100.00;99771.31;322827;30;2367;-79
2023/10/19 00:16:29;;;;;;;;;;;;;;;10.24;100.00;99769.59;318803;30;1451;-79
2023/10/19 00:16:39;;;;;;;;;;;;;;;10.26;100.00;99772.16;316784;31;893;-79
2023/10/19 00:16:52;;;;;;;;;;;;;;;10.24;100.00;99767.00;315747;31;3546;-79
2023/10/19 00:17:05;;;;;;;;;;;;;;;10.24;100.00;99769.59;314350;31;3249;-79
2023/10/19 00:17:16;;;;;;;;;;;;;;;10.25;100.00;99771.31;313840;31;3178;-79
2023/10/19 00:17:28;;;;;;;;;;;;;;;10.24;100.00;99763.53;313114;31;1351;-79
2023/10/19 00:17:39;;;;;;;;;;;;;;;10.23;100.00;99767.91;310828;31;1307;-79
2023/10/19 00:17:53;;;;;;;;;;;;;;;10.22;100.00;99768.81;310571;31;1840;-79
2023/10/19 00:18:20;;;;;;;;;;;;;;;10.23;100.00;99772.28;312404;31;2507;-79
2023/10/19 00:18:34;;;;;;;;;;;;;;;10.20;100.00;99762.78;306635;31;4184;-79
2023/10/19 00:18:44;;;;;;;;;;;;;;;10.20;100.00;99767.16;305273;32;4059;-79
2023/10/19 00:18:59;;;;;;;;;;;;;;;10.19;100.00;99765.41;306530;32;1350;-79
2023/10/19 00:19:09;;;;;;;;;;;;;;;10.20;100.00;99767.16;301518;32;1774;-79
2023/10/19 00:19:20;;;;;;;;;;;;;;;10.18;100.00;99767.19;298221;32;4747;-79
2023/10/19 00:19:37;;;;;;;;;;;;;;;10.19;100.00;99765.41;295018;33;4183;-79
2023/10/19 00:20:52;;;;;;;;;;;;;;;10.17;100.00;99760.25;291848;33;6928;-79
2023/10/19 00:21:19;;;;;;;;;;;;;;;10.18;100.00;99767.19;286936;33;6558;-79
2023/10/19 00:21:31;;;;;;;;;;;;;;;10.18;100.00;99759.34;282283;34;7439;-78
2023/10/19 00:21:50;;;;;;;;;;;;;;;10.17;100.00;99760.25;283096;35;1381;-78
2023/10/19 00:22:08;;;;;;;;;;;;;;;10.18;100.00;99761.94;279978;34;4432;-79
2023/10/19 00:22:21;;;;;;;;;;;;;;;10.17;100.00;99757.63;276006;35;5046;-80
2023/10/19 00:22:35;;;;;;;;;;;;;;;10.18;100.00;99763.72;272166;35;6611;-79
2023/10/19 00:22:46;;;;;;;;;;;;;;;10.16;100.00;99761.16;270500;36;9214;-79
2023/10/19 00:22:58;;;;;;;;;;;;;;;10.17;100.00;99762.84;273009;36;1278;-79
2023/10/19 00:24:34;;;;;;;;;;;;;;;10.19;100.00;99760.19;2501600;27;20297;-80
2023/10/19 00:24:45;;;;;;;;;;;;;;;10.16;100.00;99755.91;356214;27;799;-80
2023/10/19 00:24:55;;;;;;;;;;;;;;;10.17;100.00;99755.00;354743;27;798;-78
2023/10/19 00:25:07;;;;;;;;;;;;;;;10.18;100.00;99751.47;352067;28;1216;-78
2023/10/19 00:25:18;;;;;;;;;;;;;;;10.19;100.00;99760.19;350527;28;1345;-78
2023/10/19 00:25:29;;;;;;;;;;;;;;;10.18;100.00;99751.47;349475;28;1258;-79
2023/10/19 00:25:41;;;;;;;;;;;;;;;10.15;100.00;99751.59;350440;28;1361;-79
2023/10/19 00:25:51;;;;;;;;;;;;;;;10.15;100.00;99754.22;349079;28;1371;-79
2023/10/19 00:26:15;;;;;;;;;;;;;;;10.17;100.00;99751.53;349064;28;1535;-79
2023/10/19 00:26:26;;;;;;;;;;;;;;;10.15;100.00;99748.97;350604;28;830;-79
2023/10/19 00:26:36;;;;;;;;;;;;;;;10.15;100.00;99754.22;349250;28;1359;-79
2023/10/19 00:26:48;;;;;;;;;;;;;;;10.17;100.00;99756.78;353149;28;1258;-79
2023/10/19 00:27:05;;;;;;;;;;;;;;;10.17;100.00;99746.31;353713;28;893;-79
2023/10/19 00:27:17;;;;;;;;;;;;;;;10.17;100.00;99757.63;350920;28;1362;-79
2023/10/19 00:27:27;;;;;;;;;;;;;;;10.17;100.00;99751.53;349129;28;1366;-79
2023/10/19 00:27:38;;;;;;;;;;;;;;;10.18;100.00;99756.72;350677;28;1380;-79
2023/10/19 00:27:48;;;;;;;;;;;;;;;10.17;100.00;99752.41;351347;28;1200;-78
2023/10/19 00:28:01;;;;;;;;;;;;;;;10.17;100.00;99752.41;349030;28;1312;-78
2023/10/19 00:28:14;;;;;;;;;;;;;;;10.17;100.00;99752.41;349489;28;1353;-78
2023/10/19 00:28:27;;;;;;;;;;;;;;;10.18;100.00;99754.09;349672;28;1386;-78
2023/10/19 00:28:38;;;;;;;;;;;;;;;10.17;100.00;99752.41;349008;28;1243;-79
2023/10/19 00:28:58;;;;;;;;;;;;;;;10.17;100.00;99752.41;348466;28;1467;-79
2023/10/19 00:29:30;;;;;;;;;;;;;;;10.18;100.00;99754.09;346349;28;1405;-79
2023/10/19 00:29:40;;;;;;;;;;;;;;;10.17;100.00;99752.41;345461;28;890;-79
2023/10/19 00:29:55;;;;;;;;;;;;;;;10.16;100.00;99749.84;345542;28;812;-79
2023/10/19 00:30:06;;;;;;;;;;;;;;;10.15;100.00;99751.59;345050;28;843;-79
2023/10/19 00:30:21;;;;;;;;;;;;;;;10.16;100.00;99742.84;345691;28;3172;-79
2023/10/19 00:30:33;;;;;;;;;;;;;;;10.16;100.00;99744.59;348753;28;3117;-79
2023/10/19 00:30:45;;;;;;;;;;;;;;;10.15;100.00;99754.22;350484;28;1362;-79
2023/10/19 00:31:03;;;;;;;;;;;;;;;10.14;100.00;99747.28;347797;28;3237;-79
2023/10/19 00:31:13;;;;;;;;;;;;;;;10.13;100.00;99745.56;346410;28;1361;-80
2023/10/19 00:31:33;;;;;;;;;;;;;;;10.13;100.00;99742.09;343473;28;1212;-80
2023/10/19 00:31:44;;;;;;;;;;;;;;;10.12;100.00;99745.63;343737;28;1267;-79
2023/10/19 00:31:56;;;;;;;;;;;;;;;10.11;100.00;99742.16;343703;28;1387;-79
2023/10/19 00:32:12;;;;;;;;;;;;;;;10.10;100.00;99740.44;345238;28;1258;-79
2023/10/19 00:32:24;;;;;;;;;;;;;;;10.09;100.00;99743.97;342670;28;1407;-79
2023/10/19 00:32:38;;;;;;;;;;;;;;;10.08;100.00;99742.28;341570;28;915;-79
2023/10/19 00:32:48;;;;;;;;;;;;;;;10.10;100.00;99743.06;339091;29;1118;-79
2023/10/19 00:33:03;;;;;;;;;;;;;;;10.12;100.00;99738.63;341905;28;1372;-79
2023/10/19 00:33:18;;;;;;;;;;;;;;;10.11;100.00;99742.16;343064;28;1525;-79
2023/10/19 00:33:28;;;;;;;;;;;;;;;10.10;100.00;99740.44;342968;28;1187;-79
2023/10/19 00:33:38;;;;;;;;;;;;;;;10.12;100.00;99745.63;342307;28;1324;-79
2023/10/19 00:33:54;;;;;;;;;;;;;;;10.12;100.00;99743.88;342177;28;1232;-79
2023/10/19 00:34:04;;;;;;;;;;;;;;;10.13;100.00;99745.56;342309;28;1158;-79
2023/10/19 00:34:15;;;;;;;;;;;;;;;10.13;100.00;99744.72;339974;29;1500;-79
2023/10/19 00:34:28;;;;;;;;;;;;;;;10.11;100.00;99741.31;340721;28;1162;-79
2023/10/19 00:34:38;;;;;;;;;;;;;;;10.11;100.00;99742.16;341625;28;1893;-79
2023/10/19 00:34:51;;;;;;;;;;;;;;;10.13;100.00;99739.50;337472;29;1377;-79
2023/10/19 00:35:08;;;;;;;;;;;;;;;10.12;100.00;99737.78;340306;28;1648;-79
2023/10/19 00:35:27;;;;;;;;;;;;;;;10.11;100.00;99744.78;337407;29;881;-79
2023/10/19 00:35:42;;;;;;;;;;;;;;;10.11;100.00;99742.16;333532;29;1311;-79
2023/10/19 00:36:08;;;;;;;;;;;;;;;10.10;100.00;99739.59;333441;29;1435;-79
2023/10/19 00:36:20;;;;;;;;;;;;;;;10.09;100.00;99738.75;329916;29;1327;-79
2023/10/19 00:36:31;;;;;;;;;;;;;;;10.09;100.00;99730.91;333404;29;1677;-79
2023/10/19 00:36:41;;;;;;;;;;;;;;;10.09;100.00;99743.97;331492;29;2084;-79
2023/10/19 00:36:52;;;;;;;;;;;;;;;10.10;100.00;99739.59;329581;29;1309;-79
2023/10/19 00:37:07;;;;;;;;;;;;;;;10.07;100.00;99740.56;330118;29;2296;-79
2023/10/19 00:37:26;;;;;;;;;;;;;;;10.10;100.00;99737.84;329067;30;2337;-79
2023/10/19 00:37:42;;;;;;;;;;;;;;;10.10;100.00;99734.38;323773;30;1271;-79
2023/10/19 00:37:55;;;;;;;;;;;;;;;10.08;100.00;99731.81;322532;30;1181;-79
2023/10/19 00:38:53;;;;;;;;;;;;;;;10.08;100.00;99734.44;319007;30;1351;-79
2023/10/19 00:39:05;;;;;;;;;;;;;;;10.05;100.00;99731.91;314602;31;3028;-80
2023/10/19 00:39:20;;;;;;;;;;;;;;;10.05;100.00;99728.44;314918;31;3245;-80
2023/10/19 00:39:41;;;;;;;;;;;;;;;10.04;100.00;99734.59;313183;31;3480;-80
2023/10/19 00:39:54;;;;;;;;;;;;;;;10.04;100.00;99735.44;310189;31;3372;-78
2023/10/19 00:40:15;;;;;;;;;;;;;;;10.04;100.00;99730.22;311008;31;3582;-78
2023/10/19 00:40:35;;;;;;;;;;;;;;;10.04;100.00;99735.44;308081;31;2141;-81
2023/10/19 00:40:53;;;;;;;;;;;;;;;10.04;100.00;99732.81;307039;31;2798;-80
2023/10/19 00:41:11;;;;;;;;;;;;;;;10.03;100.00;99738.97;303156;32;1312;-78
2023/10/19 00:41:27;;;;;;;;;;;;;;;10.02;100.00;99730.28;294073;33;1380;-78
2023/10/19 00:41:37;;;;;;;;;;;;;;;10.02;100.00;99734.66;293938;33;1328;-78
2023/10/19 00:41:48;;;;;;;;;;;;;;;10.01;100.00;99739.03;295161;33;4252;-78
2023/10/19 00:41:58;;;;;;;;;;;;;;;10.03;100.00;99733.75;293939;33;4472;-79
2023/10/19 00:42:09;;;;;;;;;;;;;;;10.04;100.00;99737.22;291383;33;4151;-79
2023/10/19 00:42:23;;;;;;;;;;;;;;;10.03;100.00;99736.34;289352;34;1263;-79
2023/10/19 00:42:38;;;;;;;;;;;;;;;10.02;100.00;99732.03;287464;34;1391;-79
2023/10/19 00:42:53;;;;;;;;;;;;;;;10.03;100.00;99738.97;287503;34;1383;-80
2023/10/19 00:43:08;;;;;;;;;;;;;;;10.03;100.00;99731.13;283362;34;1060;-80
2023/10/19 00:43:41;;;;;;;;;;;;;;;10.03;100.00;99733.75;281115;35;1277;-80
2023/10/19 00:44:37;;;;;;;;;;;;;;;10.06;100.00;99732.78;283145;35;1522;-80
2023/10/19 00:44:47;;;;;;;;;;;;;;;10.04;100.00;99738.06;280376;34;5864;-79
2023/10/19 00:45:05;;;;;;;;;;;;;;;10.05;100.00;99731.91;273762;35;5627;-79
2023/10/19 00:45:24;;;;;;;;;;;;;;;10.06;100.00;99730.16;270547;36;7130;-79
2023/10/19 00:45:39;;;;;;;;;;;;;;;10.05;100.00;99734.53;268414;36;1308;-79
2023/10/19 00:45:52;;;;;;;;;;;;;;;10.04;100.00;99731.97;265733;37;1366;-79
2023/10/19 00:48:01;;;;;;;;;;;;;;;10.02;100.00;99732.03;2484223;27;19923;-80
2023/10/19 00:48:11;;;;;;;;;;;;;;;10.00;100.00;99732.09;350496;28;1295;-80
2023/10/19 00:48:26;;;;;;;;;;;;;;;10.00;100.00;99734.69;351005;28;752;-80
2023/10/19 00:48:36;;;;;;;;;;;;;;;10.01;100.00;99735.56;347570;28;1378;-79
2023/10/19 00:48:50;;;;;;;;;;;;;;;10.01;100.00;99735.56;346707;28;3068;-79
2023/10/19 00:49:02;;;;;;;;;;;;;;;10.00;100.00;99731.22;345854;28;3247;-79
2023/10/19 00:49:14;;;;;;;;;;;;;;;10.00;100.00;99728.63;344975;28;1363;-79
2023/10/19 00:49:26;;;;;;;;;;;;;;;10.00;100.00;99731.22;347250;28;3253;-79
2023/10/19 00:49:38;;;;;;;;;;;;;;;9.99;100.00;99737.38;347015;28;1295;-79
2023/10/19 00:49:48;;;;;;;;;;;;;;;9.98;100.00;99733.06;345840;28;1378;-79
2023/10/19 00:50:02;;;;;;;;;;;;;;;9.98;100.00;99727.81;348632;28;1323;-79
2023/10/19 00:50:17;;;;;;;;;;;;;;;9.97;100.00;99732.19;347754;28;847;-79
2023/10/19 00:50:30;;;;;;;;;;;;;;;9.99;100.00;99724.28;348018;28;1275;-79
2023/10/19 00:50:43;;;;;;;;;;;;;;;9.97;100.00;99731.34;346307;28;1366;-79
2023/10/19 00:51:06;;;;;;;;;;;;;;;9.98;100.00;99725.22;346457;28;1366;-79
2023/10/19 00:51:26;;;;;;;;;;;;;;;9.96;99.98;99733.09;344864;28;1374;-79
2023/10/19 00:52:02;;;;;;;;;;;;;;;9.97;100.00;99733.97;346454;28;1087;-79
2023/10/19 00:52:16;;;;;;;;;;;;;;;9.96;99.96;99727.06;343854;28;1240;-78
2023/10/19 00:52:26;;;;;;;;;;;;;;;9.96;100.00;99729.66;343520;28;944;-78
2023/10/19 00:52:43;;;;;;;;;;;;;;;9.97;99.98;99729.59;342536;28;1206;-78
2023/10/19 00:52:57;;;;;;;;;;;;;;;9.96;99.85;99727.06;343626;28;1245;-80
2023/10/19 00:53:08;;;;;;;;;;;;;;;9.94;100.00;99728.88;342321;28;1368;-78
2023/10/19 00:53:18;;;;;;;;;;;;;;;9.94;99.96;99726.25;339421;28;1392;-78
2023/10/19 00:53:29;;;;;;;;;;;;;;;9.94;99.85;99728.88;343704;28;1182;-78
2023/10/19 00:53:39;;;;;;;;;;;;;;;9.94;100.00;99731.47;341732;28;1408;-78
2023/10/19 00:53:50;;;;;;;;;;;;;;;9.94;99.72;99727.13;340922;28;1114;-78
2023/10/19 00:54:41;;;;;;;;;;;;;;;9.94;99.87;99729.72;339501;29;1072;-78
2023/10/19 00:54:53;;;;;;;;;;;;;;;9.93;100.00;99728.03;338420;29;1360;-78
2023/10/19 00:55:05;;;;;;;;;;;;;;;9.92;99.82;99725.47;339513;29;1297;-78
2023/10/19 00:55:15;;;;;;;;;;;;;;;9.94;99.76;99734.09;339508;29;1265;-78
2023/10/19 00:55:27;;;;;;;;;;;;;;;9.93;99.75;99733.25;339381;29;1136;-78
2023/10/19 00:55:37;;;;;;;;;;;;;;;9.93;99.87;99728.03;339814;28;817;-78
2023/10/19 00:55:48;;;;;;;;;;;;;;;9.94;99.79;99736.72;338359;29;1322;-78
2023/10/19 00:56:00;;;;;;;;;;;;;;;9.94;99.97;99731.47;340296;29;1254;-78
2023/10/19 00:56:10;;;;;;;;;;;;;;;9.93;99.81;99730.63;340891;28;1394;-79
2023/10/19 00:56:23;;;;;;;;;;;;;;;9.92;99.83;99731.53;339476;29;1240;-79
2023/10/19 00:56:33;;;;;;;;;;;;;;;9.94;99.89;99728.88;338200;29;1242;-79
2023/10/19 00:56:48;;;;;;;;;;;;;;;9.93;99.86;99727.16;339430;29;1663;-79
2023/10/19 00:57:03;;;;;;;;;;;;;;;9.94;99.78;99731.47;334306;29;1329;-79
2023/10/19 00:57:13;;;;;;;;;;;;;;;9.95;99.71;99730.56;332081;29;1359;-79
2023/10/19 00:57:33;;;;;;;;;;;;;;;9.95;99.76;99730.56;332563;29;1297;-79
2023/10/19 00:57:48;;;;;;;;;;;;;;;9.94;99.68;99728.88;331698;29;1194;-79
2023/10/19 00:58:03;;;;;;;;;;;;;;;9.93;99.87;99727.16;331029;29;2815;-79
2023/10/19 00:58:17;;;;;;;;;;;;;;;9.93;99.93;99729.78;331713;29;3255;-79
2023/10/19 00:58:30;;;;;;;;;;;;;;;9.94;99.84;99728.88;331493;29;1948;-79
2023/10/19 00:58:41;;;;;;;;;;;;;;;9.96;99.80;99724.44;330117;29;3376;-80
2023/10/19 00:58:59;;;;;;;;;;;;;;;9.96;99.67;99727.06;327807;30;2186;-79
2023/10/19 00:59:20;;;;;;;;;;;;;;;9.98;99.67;99730.44;325795;30;1521;-79
2023/10/19 00:59:30;;;;;;;;;;;;;;;9.98;99.76;99726.06;323400;30;1427;-79
2023/10/19 00:59:48;;;;;;;;;;;;;;;9.98;99.77;99730.44;319077;30;1421;-79
2023/10/19 01:00:21;;;;;;;;;;;;;;;9.96;99.82;99727.06;318939;30;1754;-79
2023/10/19 01:00:34;;;;;;;;;;;;;;;9.97;99.95;99723.50;315284;30;2243;-79
2023/10/19 01:00:44;;;;;;;;;;;;;;;9.94;99.85;99727.13;311444;31;2295;-79
2023/10/19 01:00:55;;;;;;;;;;;;;;;9.95;99.96;99725.34;310491;31;2344;-79
2023/10/19 01:01:05;;;;;;;;;;;;;;;9.96;99.86;99724.44;309480;31;2343;-79
2023/10/19 01:01:16;;;;;;;;;;;;;;;9.96;99.80;99730.50;310785;31;1308;-79
2023/10/19 01:01:29;;;;;;;;;;;;;;;9.96;99.72;99727.06;311033;31;1764;-79
2023/10/19 01:01:43;;;;;;;;;;;;;;;9.95;99.89;99725.34;311171;31;1591;-80
2023/10/19 01:01:55;;;;;;;;;;;;;;;9.93;99.95;99728.03;313275;31;1744;-80
2023/10/19 01:02:19;;;;;;;;;;;;;;;9.93;99.85;99724.56;311250;31;2150;-80
2023/10/19 01:02:30;;;;;;;;;;;;;;;9.92;99.87;99720.22;309380;31;2674;-80
2023/10/19 01:02:46;;;;;;;;;;;;;;;9.90;100.00;99725.50;306147;32;2973;-80
2023/10/19 01:02:59;;;;;;;;;;;;;;;9.90;99.91;99719.44;305643;32;3140;-80
2023/10/19 01:03:10;;;;;;;;;;;;;;;9.90;99.92;99717.66;307351;31;2976;-80
2023/10/19 01:03:21;;;;;;;;;;;;;;;9.92;100.00;99720.22;306409;32;2965;-80
2023/10/19 01:03:35;;;;;;;;;;;;;;;9.92;99.82;99725.47;306958;32;1297;-80
2023/10/19 01:03:45;;;;;;;;;;;;;;;9.90;99.94;99719.44;305676;32;1271;-80
2023/10/19 01:03:58;;;;;;;;;;;;;;;9.90;99.82;99722.03;304213;32;1919;-80
2023/10/19 01:04:13;;;;;;;;;;;;;;;9.91;100.00;99719.38;301594;32;2660;-80
2023/10/19 01:04:25;;;;;;;;;;;;;;;9.92;100.00;99715.00;297718;33;2826;-80
2023/10/19 01:04:35;;;;;;;;;;;;;;;9.91;99.93;99716.75;296622;32;4032;-80
2023/10/19 01:04:50;;;;;;;;;;;;;;;9.91;100.00;99719.38;301467;32;794;-80
2023/10/19 01:05:04;;;;;;;;;;;;;;;9.92;99.99;99717.63;295132;33;1409;-80
2023/10/19 01:05:14;;;;;;;;;;;;;;;9.91;100.00;99723.75;298189;33;4699;-80
2023/10/19 01:05:31;;;;;;;;;;;;;;;9.91;100.00;99716.75;294906;33;3977;-80
2023/10/19 01:05:47;;;;;;;;;;;;;;;9.91;100.00;99714.16;293262;33;4113;-80
2023/10/19 01:05:58;;;;;;;;;;;;;;;9.93;100.00;99716.72;289057;33;3699;-80
2023/10/19 01:06:14;;;;;;;;;;;;;;;9.94;100.00;99719.28;288208;33;3134;-80
2023/10/19 01:06:25;;;;;;;;;;;;;;;9.94;100.00;99715.81;287061;34;4011;-80
2023/10/19 01:06:35;;;;;;;;;;;;;;;9.94;100.00;99719.28;286260;34;5166;-80
2023/10/19 01:07:00;;;;;;;;;;;;;;;9.93;99.92;99720.19;283950;34;815;-80
2023/10/19 01:07:21;;;;;;;;;;;;;;;9.94;100.00;99718.41;278022;35;7503;-80
2023/10/19 01:07:33;;;;;;;;;;;;;;;9.92;100.00;99721.09;275646;35;3334;-80
2023/10/19 01:07:45;;;;;;;;;;;;;;;9.91;100.00;99722.00;274576;35;6759;-80
2023/10/19 01:07:59;;;;;;;;;;;;;;;9.92;99.99;99720.22;272401;36;6126;-80
2023/10/19 01:08:26;;;;;;;;;;;;;;;9.92;99.99;99717.63;270769;36;5767;-80
2023/10/19 01:08:41;;;;;;;;;;;;;;;9.88;100.00;99713.41;267182;36;6121;-79
2023/10/19 01:08:55;;;;;;;;;;;;;;;9.88;100.00;99721.25;266232;36;7481;-79
2023/10/19 01:10:45;;;;;;;;;;;;;;;9.86;99.96;99712.59;2504240;27;19933;-79
2023/10/19 01:10:57;;;;;;;;;;;;;;;9.86;99.92;99707.38;353253;28;1276;-79
2023/10/19 01:11:15;;;;;;;;;;;;;;;9.85;99.85;99713.50;350503;28;1266;-79
2023/10/19 01:11:28;;;;;;;;;;;;;;;9.84;99.63;99704.81;350731;28;1274;-79
2023/10/19 01:11:38;;;;;;;;;;;;;;;9.85;99.84;99713.50;353354;28;1289;-79
2023/10/19 01:11:49;;;;;;;;;;;;;;;9.84;99.84;99710.06;352503;28;1319;-79
2023/10/19 01:12:43;;;;;;;;;;;;;;;9.83;99.87;99715.34;349128;28;734;-78
2023/10/19 01:12:53;;;;;;;;;;;;;;;9.84;99.71;99715.28;348953;28;1415;-80
2023/10/19 01:13:05;;;;;;;;;;;;;;;9.83;99.78;99710.09;350377;28;1298;-80
2023/10/19 01:13:16;;;;;;;;;;;;;;;9.82;99.86;99709.25;347949;28;828;-79
2023/10/19 01:13:34;;;;;;;;;;;;;;;9.82;99.84;99709.25;349081;28;1246;-79
2023/10/19 01:13:44;;;;;;;;;;;;;;;9.83;99.83;99704.88;351530;28;1343;-79
2023/10/19 01:13:55;;;;;;;;;;;;;;;9.83;99.86;99704.88;349389;28;1419;-78
2023/10/19 01:14:18;;;;;;;;;;;;;;;9.82;99.76;99711.00;348097;28;1239;-78
2023/10/19 01:14:29;;;;;;;;;;;;;;;9.84;99.91;99709.19;345533;28;898;-80
2023/10/19 01:14:40;;;;;;;;;;;;;;;9.81;99.89;99711.91;346742;28;1054;-80
2023/10/19 01:15:07;;;;;;;;;;;;;;;9.80;99.98;99707.59;347621;28;927;-80
2023/10/19 01:15:18;;;;;;;;;;;;;;;9.80;99.81;99705.84;347685;28;1348;-80
2023/10/19 01:15:29;;;;;;;;;;;;;;;9.78;100.00;99701.56;348999;28;1234;-80
2023/10/19 01:15:40;;;;;;;;;;;;;;;9.79;99.99;99709.34;347798;28;1073;-79
2023/10/19 01:15:51;;;;;;;;;;;;;;;9.80;100.00;99699.75;346300;28;1271;-79
2023/10/19 01:16:01;;;;;;;;;;;;;;;9.81;99.96;99712.78;343544;28;1320;-79
2023/10/19 01:16:15;;;;;;;;;;;;;;;9.80;99.94;99705.00;345076;28;1329;-79
2023/10/19 01:16:26;;;;;;;;;;;;;;;9.79;100.00;99703.28;344390;28;3136;-79
2023/10/19 01:16:37;;;;;;;;;;;;;;;9.79;99.76;99705.91;343596;28;3150;-79
2023/10/19 01:16:49;;;;;;;;;;;;;;;9.78;99.97;99707.66;342190;28;3388;-79
2023/10/19 01:17:01;;;;;;;;;;;;;;;9.78;99.86;99706.81;345073;28;1354;-79
2023/10/19 01:17:11;;;;;;;;;;;;;;;9.78;100.00;99709.41;343607;28;1380;-79
2023/10/19 01:17:22;;;;;;;;;;;;;;;9.77;100.00;99705.09;343736;28;997;-79
2023/10/19 01:17:38;;;;;;;;;;;;;;;9.77;100.00;99711.19;342155;28;1368;-79
2023/10/19 01:17:52;;;;;;;;;;;;;;;9.77;100.00;99710.31;339665;29;1503;-79
2023/10/19 01:18:04;;;;;;;;;;;;;;;9.76;100.00;99706.84;341166;28;828;-79
2023/10/19 01:18:16;;;;;;;;;;;;;;;9.75;99.97;99712.13;341853;28;1359;-78
2023/10/19 01:18:32;;;;;;;;;;;;;;;9.75;100.00;99713.00;339824;29;1524;-78
2023/10/19 01:18:43;;;;;;;;;;;;;;;9.75;100.00;99706.91;333285;29;1401;-78
2023/10/19 01:18:53;;;;;;;;;;;;;;;9.75;100.00;99712.13;331430;29;1432;-78
2023/10/19 01:19:06;;;;;;;;;;;;;;;9.74;99.96;99705.22;332576;29;1583;-78
2023/10/19 01:19:20;;;;;;;;;;;;;;;9.76;100.00;99711.22;335836;29;1604;-79
2023/10/19 01:19:30;;;;;;;;;;;;;;;9.76;99.93;99706.00;335820;29;1402;-79
2023/10/19 01:19:41;;;;;;;;;;;;;;;9.76;100.00;99703.38;334681;29;1261;-79
2023/10/19 01:19:52;;;;;;;;;;;;;;;9.77;99.79;99702.47;336419;29;1358;-79
2023/10/19 01:20:12;;;;;;;;;;;;;;;9.77;100.00;99710.31;334583;29;1149;-79
2023/10/19 01:20:54;;;;;;;;;;;;;;;9.76;100.00;99708.63;332278;29;962;-79
2023/10/19 01:21:07;;;;;;;;;;;;;;;9.77;100.00;99705.94;329362;29;1942;-79
2023/10/19 01:21:21;;;;;;;;;;;;;;;9.77;100.00;99705.09;330472;29;1671;-79
2023/10/19 01:21:37;;;;;;;;;;;;;;;9.79;100.00;99703.28;326882;30;2091;-79
2023/10/19 01:21:52;;;;;;;;;;;;;;;9.80;100.00;99697.16;325320;30;1544;-79
2023/10/19 01:22:04;;;;;;;;;;;;;;;9.80;99.76;99697.16;324764;30;895;-80
2023/10/19 01:22:16;;;;;;;;;;;;;;;9.81;99.84;99706.69;325216;30;1405;-79
2023/10/19 01:22:27;;;;;;;;;;;;;;;9.80;99.86;99702.38;322607;30;1159;-80
2023/10/19 01:22:38;;;;;;;;;;;;;;;9.80;99.81;99705.00;319721;30;1696;-80